createdAt,value
2017-12-08T00:00:18.769Z,88.12
2017-12-08T00:01:21.253Z,87.74
2017-12-08T00:02:23.718Z,87.50
2017-12-08T00:03:26.190Z,87.32
2017-12-08T00:04:28.647Z,87.50
2017-12-08T00:05:31.724Z,87.39
2017-12-08T00:06:34.804Z,87.25
2017-12-08T00:07:37.538Z,87.17
2017-12-08T00:08:40.009Z,87.23
2017-12-08T00:09:42.476Z,87.50
2017-12-08T00:10:44.930Z,87.34
2017-12-08T00:11:47.412Z,87.27
2017-12-08T00:12:49.860Z,87.58
2017-12-08T00:13:52.327Z,86.90
2017-12-08T00:14:54.782Z,86.56
2017-12-08T00:15:57.234Z,86.90
2017-12-08T00:16:59.694Z,87.00
2017-12-08T00:18:02.144Z,87.35
2017-12-08T00:19:04.628Z,86.60
2017-12-08T00:20:07.083Z,86.82
2017-12-08T00:21:09.529Z,86.27
2017-12-08T00:22:11.993Z,86.18
2017-12-08T00:23:14.457Z,86.32
2017-12-08T00:24:16.933Z,86.65
2017-12-08T00:25:19.386Z,85.74
2017-12-08T00:26:21.835Z,85.50
2017-12-08T00:27:24.283Z,86.06
2017-12-08T00:28:26.745Z,85.71
2017-12-08T00:29:29.209Z,85.70
2017-12-08T00:30:31.678Z,86.47
2017-12-08T00:31:34.126Z,86.01
2017-12-08T00:32:36.588Z,86.16
2017-12-08T00:33:39.052Z,85.85
2017-12-08T00:34:41.511Z,86.09
2017-12-08T00:35:43.972Z,86.12
2017-12-08T00:36:46.434Z,85.87
2017-12-08T00:37:48.882Z,85.75
2017-12-08T00:38:51.348Z,85.50
2017-12-08T00:39:53.804Z,85.56
2017-12-08T00:40:56.254Z,86.11
2017-12-08T00:41:58.714Z,85.63
2017-12-08T00:43:01.180Z,86.21
2017-12-08T00:44:03.642Z,85.49
2017-12-08T00:45:06.108Z,85.72
2017-12-08T00:46:08.559Z,85.55
2017-12-08T00:47:11.025Z,85.35
2017-12-08T00:48:13.492Z,85.29
2017-12-08T00:49:15.938Z,85.43
2017-12-08T00:50:18.404Z,85.42
2017-12-08T00:51:20.850Z,85.36
2017-12-08T00:52:23.329Z,85.44
2017-12-08T00:53:25.782Z,85.59
2017-12-08T00:54:28.235Z,85.81
2017-12-08T00:55:30.700Z,86.09
2017-12-08T00:56:33.158Z,86.01
2017-12-08T00:57:35.625Z,85.98
2017-12-08T00:58:38.074Z,86.23
2017-12-08T00:59:40.556Z,86.12
2017-12-08T01:00:43.006Z,86.29
2017-12-08T01:01:45.473Z,86.55
2017-12-08T01:02:47.941Z,86.34
2017-12-08T01:03:50.416Z,86.24
2017-12-08T01:04:52.884Z,86.60
2017-12-08T01:05:55.349Z,86.78
2017-12-08T01:06:57.816Z,86.29
2017-12-08T01:08:00.289Z,86.79
2017-12-08T01:09:02.754Z,86.33
2017-12-08T01:10:05.206Z,86.09
2017-12-08T01:11:07.658Z,86.28
2017-12-08T01:12:10.132Z,86.48
2017-12-08T01:13:12.597Z,86.39
2017-12-08T01:14:15.058Z,86.03
2017-12-08T01:15:17.537Z,85.84
2017-12-08T01:16:19.991Z,85.77
2017-12-08T01:17:22.456Z,85.62
2017-12-08T01:18:24.910Z,85.53
2017-12-08T01:19:27.354Z,85.71
2017-12-08T01:20:29.810Z,85.33
2017-12-08T01:21:32.301Z,85.51
2017-12-08T01:22:34.772Z,85.41
2017-12-08T01:23:37.237Z,85.49
2017-12-08T01:24:39.727Z,84.97
2017-12-08T01:25:42.200Z,85.28
2017-12-08T01:26:44.679Z,85.82
2017-12-08T01:27:47.131Z,85.67
2017-12-08T01:28:49.600Z,85.77
2017-12-08T01:29:52.068Z,85.54
2017-12-08T01:30:54.514Z,85.78
2017-12-08T01:31:56.985Z,85.44
2017-12-08T01:32:59.438Z,85.56
2017-12-08T01:34:01.890Z,85.09
2017-12-08T01:35:04.342Z,84.96
2017-12-08T01:36:06.809Z,84.69
2017-12-08T01:37:09.254Z,85.11
2017-12-08T01:38:11.724Z,85.03
2017-12-08T01:39:14.186Z,84.83
2017-12-08T01:40:16.636Z,84.55
2017-12-08T01:41:19.094Z,84.39
2017-12-08T01:42:21.548Z,84.39
2017-12-08T01:43:24.034Z,85.07
2017-12-08T01:44:26.506Z,84.21
2017-12-08T01:45:28.964Z,84.16
2017-12-08T01:46:31.415Z,84.79
2017-12-08T01:47:33.871Z,85.52
2017-12-08T01:48:36.318Z,84.69
2017-12-08T01:49:38.793Z,83.81
2017-12-08T01:50:41.263Z,83.36
2017-12-08T01:51:43.714Z,83.42
2017-12-08T01:52:46.166Z,83.75
2017-12-08T01:53:48.633Z,83.06
2017-12-08T01:54:51.096Z,83.41
2017-12-08T01:55:53.564Z,83.85
2017-12-08T01:56:56.029Z,84.14
2017-12-08T01:57:58.504Z,83.82
2017-12-08T01:59:00.958Z,83.41
2017-12-08T02:00:03.422Z,83.35
2017-12-08T02:01:05.882Z,83.31
2017-12-08T02:02:08.356Z,83.57
2017-12-08T02:03:10.802Z,83.25
2017-12-08T02:04:13.274Z,83.79
2017-12-08T02:05:15.730Z,83.18
2017-12-08T02:06:18.178Z,82.84
2017-12-08T02:07:20.644Z,83.03
2017-12-08T02:08:23.099Z,82.59
2017-12-08T02:09:25.584Z,82.88
2017-12-08T02:10:28.085Z,82.81
2017-12-08T02:11:30.548Z,83.65
2017-12-08T02:12:33.012Z,82.72
2017-12-08T02:13:35.463Z,82.62
2017-12-08T02:14:37.938Z,82.45
2017-12-08T02:15:40.390Z,82.51
2017-12-08T02:16:42.856Z,82.55
2017-12-08T02:17:45.302Z,82.41
2017-12-08T02:18:47.754Z,82.84
2017-12-08T02:19:50.223Z,82.56
2017-12-08T02:20:52.684Z,82.92
2017-12-08T02:21:55.145Z,82.87
2017-12-08T02:22:57.594Z,82.72
2017-12-08T02:24:00.057Z,83.08
2017-12-08T02:25:02.540Z,83.06
2017-12-08T02:26:04.995Z,83.69
2017-12-08T02:27:07.442Z,83.71
2017-12-08T02:28:10.236Z,83.43
2017-12-08T02:29:12.686Z,83.14
2017-12-08T02:30:15.183Z,83.00
2017-12-08T02:31:17.644Z,83.28
2017-12-08T02:32:20.112Z,82.91
2017-12-08T02:33:22.562Z,82.94
2017-12-08T02:34:25.018Z,83.01
2017-12-08T02:35:27.505Z,83.32
2017-12-08T02:36:29.969Z,82.76
2017-12-08T02:37:32.436Z,83.22
2017-12-08T02:38:34.901Z,83.17
2017-12-08T02:39:37.365Z,82.74
2017-12-08T02:40:39.855Z,82.97
2017-12-08T02:41:42.323Z,83.47
2017-12-08T02:42:44.770Z,83.80
2017-12-08T02:43:47.240Z,84.09
2017-12-08T02:44:49.688Z,84.02
2017-12-08T02:45:52.158Z,84.40
2017-12-08T02:46:54.620Z,84.52
2017-12-08T02:47:57.083Z,84.78
2017-12-08T02:48:59.541Z,84.71
2017-12-08T02:50:02.007Z,84.82
2017-12-08T02:51:04.474Z,84.78
2017-12-08T02:52:06.945Z,84.52
2017-12-08T02:53:09.430Z,85.03
2017-12-08T02:54:11.896Z,85.16
2017-12-08T02:55:14.439Z,84.87
2017-12-08T02:56:16.909Z,84.93
2017-12-08T02:57:19.372Z,84.93
2017-12-08T02:58:21.826Z,84.88
2017-12-08T02:59:24.287Z,84.72
2017-12-08T03:00:28.656Z,84.92
2017-12-08T03:01:31.122Z,84.98
2017-12-08T03:02:33.574Z,85.11
2017-12-08T03:03:36.044Z,85.18
2017-12-08T03:04:38.509Z,85.22
2017-12-08T03:05:40.980Z,85.14
2017-12-08T03:06:43.559Z,85.18
2017-12-08T03:07:46.164Z,85.05
2017-12-08T03:08:48.616Z,85.10
2017-12-08T03:09:51.066Z,85.19
2017-12-08T03:10:53.532Z,85.34
2017-12-08T03:11:56.021Z,85.20
2017-12-08T03:12:58.485Z,84.92
2017-12-08T03:14:00.939Z,85.01
2017-12-08T03:15:03.417Z,84.97
2017-12-08T03:16:05.886Z,85.02
2017-12-08T03:17:08.379Z,85.13
2017-12-08T03:18:10.840Z,85.00
2017-12-08T03:19:13.301Z,84.83
2017-12-08T03:20:15.750Z,84.34
2017-12-08T03:21:18.200Z,84.46
2017-12-08T03:22:20.700Z,84.35
2017-12-08T03:23:23.165Z,84.05
2017-12-08T03:24:25.615Z,84.01
2017-12-08T03:25:28.077Z,83.94
2017-12-08T03:26:31.343Z,83.63
2017-12-08T03:27:33.839Z,83.58
2017-12-08T03:28:36.353Z,83.69
2017-12-08T03:29:38.833Z,83.90
2017-12-08T03:30:41.289Z,83.69
2017-12-08T03:31:43.756Z,83.69
2017-12-08T03:32:46.245Z,83.96
2017-12-08T03:33:48.703Z,83.61
2017-12-08T03:34:51.166Z,83.46
2017-12-08T03:35:53.632Z,83.47
2017-12-08T03:36:56.105Z,83.27
2017-12-08T03:37:58.592Z,83.42
2017-12-08T03:39:01.056Z,83.20
2017-12-08T03:40:03.502Z,83.01
2017-12-08T03:41:05.968Z,82.79
2017-12-08T03:42:08.431Z,82.67
2017-12-08T03:43:10.917Z,82.44
2017-12-08T03:44:13.389Z,82.23
2017-12-08T03:45:15.856Z,82.13
2017-12-08T03:46:18.325Z,82.14
2017-12-08T03:47:20.774Z,81.98
2017-12-08T03:48:23.293Z,82.28
2017-12-08T03:49:25.753Z,81.29
2017-12-08T03:50:28.201Z,81.62
2017-12-08T03:51:30.658Z,81.14
2017-12-08T03:52:33.102Z,81.70
2017-12-08T03:53:35.574Z,81.67
2017-12-08T03:54:38.041Z,81.38
2017-12-08T03:55:40.491Z,81.53
2017-12-08T03:56:42.956Z,81.57
2017-12-08T03:57:45.402Z,81.41
2017-12-08T03:58:47.874Z,81.59
2017-12-08T03:59:50.322Z,81.42
2017-12-08T04:00:52.786Z,81.60
2017-12-08T04:01:55.254Z,81.61
2017-12-08T04:02:57.710Z,81.41
2017-12-08T04:04:00.201Z,81.39
2017-12-08T04:05:02.662Z,81.62
2017-12-08T04:06:05.116Z,82.12
2017-12-08T04:07:07.617Z,81.36
2017-12-08T04:08:10.035Z,81.89
2017-12-08T04:09:12.506Z,81.39
2017-12-08T04:10:14.975Z,81.50
2017-12-08T04:11:17.439Z,81.54
2017-12-08T04:12:19.901Z,81.35
2017-12-08T04:13:22.354Z,81.63
2017-12-08T04:14:24.823Z,81.68
2017-12-08T04:15:27.274Z,80.67
2017-12-08T04:16:29.718Z,80.87
2017-12-08T04:17:32.179Z,80.77
2017-12-08T04:18:34.630Z,81.16
2017-12-08T04:19:37.082Z,80.77
2017-12-08T04:20:39.601Z,80.95
2017-12-08T04:21:42.039Z,80.94
2017-12-08T04:22:44.527Z,81.29
2017-12-08T04:23:47.067Z,81.00
2017-12-08T04:24:49.528Z,80.74
2017-12-08T04:25:51.978Z,80.70
2017-12-08T04:26:54.440Z,80.64
2017-12-08T04:27:56.904Z,80.78
2017-12-08T04:28:59.359Z,81.02
2017-12-08T04:30:01.829Z,80.94
2017-12-08T04:31:04.278Z,80.66
2017-12-08T04:32:06.731Z,80.63
2017-12-08T04:33:09.200Z,80.42
2017-12-08T04:34:11.693Z,80.32
2017-12-08T04:35:14.160Z,79.64
2017-12-08T04:36:16.621Z,79.41
2017-12-08T04:37:19.090Z,79.60
2017-12-08T04:38:21.564Z,79.82
2017-12-08T04:39:24.015Z,80.39
2017-12-08T04:40:26.466Z,79.63
2017-12-08T04:41:28.918Z,79.93
2017-12-08T04:42:31.375Z,79.55
2017-12-08T04:43:33.842Z,79.28
2017-12-08T04:44:36.308Z,79.54
2017-12-08T04:45:38.754Z,79.11
2017-12-08T04:46:41.203Z,79.87
2017-12-08T04:47:43.673Z,80.03
2017-12-08T04:48:46.138Z,79.68
2017-12-08T04:49:48.602Z,79.38
2017-12-08T04:50:51.068Z,79.93
2017-12-08T04:51:53.524Z,80.11
2017-12-08T04:52:55.996Z,80.15
2017-12-08T04:53:58.460Z,79.63
2017-12-08T04:55:00.928Z,79.80
2017-12-08T04:56:03.392Z,79.93
2017-12-08T04:57:05.884Z,79.75
2017-12-08T04:58:08.365Z,79.79
2017-12-08T04:59:10.816Z,79.42
2017-12-08T05:00:13.283Z,79.59
2017-12-08T05:01:15.734Z,79.85
2017-12-08T05:02:18.196Z,79.85
2017-12-08T05:03:20.655Z,79.69
2017-12-08T05:04:23.106Z,79.72
2017-12-08T05:05:25.571Z,79.67
2017-12-08T05:06:28.028Z,79.74
2017-12-08T05:07:30.502Z,79.61
2017-12-08T05:08:32.960Z,79.67
2017-12-08T05:09:35.424Z,79.90
2017-12-08T05:10:37.898Z,79.23
2017-12-08T05:11:40.373Z,79.63
2017-12-08T05:12:42.820Z,79.19
2017-12-08T05:13:45.270Z,78.96
2017-12-08T05:14:47.727Z,79.38
2017-12-08T05:15:50.199Z,79.41
2017-12-08T05:16:52.645Z,80.06
2017-12-08T05:17:55.102Z,79.27
2017-12-08T05:18:57.554Z,79.44
2017-12-08T05:20:00.021Z,79.42
2017-12-08T05:21:02.508Z,79.51
2017-12-08T05:22:04.963Z,79.81
2017-12-08T05:23:07.414Z,79.51
2017-12-08T05:24:09.866Z,79.88
2017-12-08T05:25:12.326Z,79.58
2017-12-08T05:26:14.818Z,79.91
2017-12-08T05:27:17.269Z,79.77
2017-12-08T05:28:19.736Z,80.10
2017-12-08T05:29:22.188Z,80.03
2017-12-08T05:30:24.637Z,80.13
2017-12-08T05:31:27.128Z,80.36
2017-12-08T05:32:29.600Z,80.14
2017-12-08T05:33:32.066Z,80.20
2017-12-08T05:34:34.519Z,80.83
2017-12-08T05:35:36.985Z,80.67
2017-12-08T05:36:39.455Z,80.95
2017-12-08T05:37:41.917Z,81.35
2017-12-08T05:38:44.362Z,81.26
2017-12-08T05:39:46.886Z,81.19
2017-12-08T05:40:49.349Z,81.62
2017-12-08T05:41:51.832Z,81.17
2017-12-08T05:42:54.277Z,81.24
2017-12-08T05:43:56.739Z,81.68
2017-12-08T05:44:59.203Z,81.86
2017-12-08T05:46:01.651Z,81.54
2017-12-08T05:47:04.130Z,81.96
2017-12-08T05:48:06.600Z,81.82
2017-12-08T05:49:09.084Z,81.89
2017-12-08T05:50:11.548Z,82.42
2017-12-08T05:51:14.009Z,82.39
2017-12-08T05:52:16.527Z,82.32
2017-12-08T05:53:19.008Z,82.31
2017-12-08T05:54:21.449Z,82.12
2017-12-08T05:55:23.918Z,82.01
2017-12-08T05:56:26.397Z,82.23
2017-12-08T05:57:28.880Z,82.49
2017-12-08T05:58:31.334Z,82.38
2017-12-08T05:59:33.805Z,82.53
2017-12-08T06:00:36.270Z,82.16
2017-12-08T06:01:38.799Z,82.17
2017-12-08T06:02:41.278Z,82.30
2017-12-08T06:03:43.741Z,82.40
2017-12-08T06:04:46.204Z,82.69
2017-12-08T06:05:48.668Z,82.15
2017-12-08T06:06:51.130Z,82.18
2017-12-08T06:07:53.614Z,82.11
2017-12-08T06:08:56.076Z,82.03
2017-12-08T06:09:58.537Z,82.05
2017-12-08T06:11:01.007Z,82.17
2017-12-08T06:12:03.458Z,82.05
2017-12-08T06:13:05.939Z,82.37
2017-12-08T06:14:08.409Z,82.47
2017-12-08T06:15:10.871Z,82.40
2017-12-08T06:16:13.322Z,82.47
2017-12-08T06:17:15.775Z,82.47
2017-12-08T06:18:18.272Z,82.03
2017-12-08T06:19:20.729Z,81.93
2017-12-08T06:20:23.188Z,82.06
2017-12-08T06:21:25.668Z,81.96
2017-12-08T06:22:28.114Z,81.56
2017-12-08T06:23:30.598Z,81.63
2017-12-08T06:24:33.062Z,81.56
2017-12-08T06:25:35.529Z,81.83
2017-12-08T06:26:37.978Z,81.88
2017-12-08T06:27:40.441Z,81.61
2017-12-08T06:28:42.935Z,81.79
2017-12-08T06:29:45.470Z,82.15
2017-12-08T06:30:47.920Z,82.05
2017-12-08T06:31:50.370Z,82.01
2017-12-08T06:32:52.828Z,81.56
2017-12-08T06:33:55.317Z,81.70
2017-12-08T06:34:57.786Z,81.61
2017-12-08T06:36:00.239Z,81.88
2017-12-08T06:37:02.709Z,82.17
2017-12-08T06:38:05.161Z,81.88
2017-12-08T06:39:07.635Z,82.15
2017-12-08T06:40:10.154Z,81.64
2017-12-08T06:41:12.623Z,81.93
2017-12-08T06:42:15.076Z,81.83
2017-12-08T06:43:22.093Z,81.79
2017-12-08T06:44:24.580Z,82.14
2017-12-08T06:45:27.048Z,81.78
2017-12-08T06:46:29.516Z,82.03
2017-12-08T06:47:31.970Z,81.84
2017-12-08T06:48:34.500Z,82.12
2017-12-08T06:49:37.012Z,82.39
2017-12-08T06:50:39.476Z,82.48
2017-12-08T06:51:41.940Z,82.37
2017-12-08T06:52:44.404Z,82.17
2017-12-08T06:53:46.913Z,82.03
2017-12-08T06:54:49.496Z,82.22
2017-12-08T06:55:51.958Z,81.72
2017-12-08T06:56:54.434Z,82.24
2017-12-08T06:57:56.904Z,82.04
2017-12-08T06:58:59.396Z,82.00
2017-12-08T07:00:01.880Z,82.14
2017-12-08T07:01:04.327Z,81.67
2017-12-08T07:02:06.827Z,81.89
2017-12-08T07:03:09.265Z,81.70
2017-12-08T07:04:11.707Z,81.44
2017-12-08T07:05:14.175Z,81.97
2017-12-08T07:06:16.636Z,81.55
2017-12-08T07:07:19.082Z,81.68
2017-12-08T07:08:21.548Z,80.97
2017-12-08T07:09:24.084Z,81.64
2017-12-08T07:10:26.578Z,81.55
2017-12-08T07:11:29.036Z,81.41
2017-12-08T07:12:31.483Z,81.07
2017-12-08T07:13:33.930Z,80.86
2017-12-08T07:14:36.392Z,80.58
2017-12-08T07:15:38.867Z,80.52
2017-12-08T07:16:41.329Z,80.45
2017-12-08T07:17:43.801Z,79.84
2017-12-08T07:18:46.262Z,80.43
2017-12-08T07:19:48.732Z,80.36
2017-12-08T07:20:51.224Z,80.47
2017-12-08T07:21:53.684Z,80.72
2017-12-08T07:22:56.143Z,80.36
2017-12-08T07:23:58.593Z,80.54
2017-12-08T07:25:01.034Z,80.19
2017-12-08T07:26:03.536Z,80.11
2017-12-08T07:27:05.983Z,80.18
2017-12-08T07:28:08.434Z,80.19
2017-12-08T07:29:10.897Z,79.43
2017-12-08T07:30:13.351Z,79.18
2017-12-08T07:31:15.856Z,78.97
2017-12-08T07:32:18.311Z,79.14
2017-12-08T07:33:20.754Z,79.10
2017-12-08T07:34:23.212Z,78.75
2017-12-08T07:35:25.681Z,78.92
2017-12-08T07:36:28.161Z,79.11
2017-12-08T07:37:30.615Z,78.85
2017-12-08T07:38:33.076Z,78.56
2017-12-08T07:39:35.541Z,78.37
2017-12-08T07:40:38.010Z,78.25
2017-12-08T07:41:40.479Z,77.93
2017-12-08T07:42:42.950Z,77.89
2017-12-08T07:43:45.415Z,78.16
2017-12-08T07:44:47.884Z,78.49
2017-12-08T07:45:50.330Z,78.03
2017-12-08T07:46:52.792Z,77.95
2017-12-08T07:47:55.246Z,77.74
2017-12-08T07:48:57.742Z,77.98
2017-12-08T07:50:00.202Z,77.83
2017-12-08T07:51:02.665Z,77.90
2017-12-08T07:52:05.114Z,77.94
2017-12-08T07:53:07.590Z,77.96
2017-12-08T07:54:10.060Z,78.25
2017-12-08T07:55:12.544Z,78.46
2017-12-08T07:56:15.000Z,78.03
2017-12-08T07:57:17.450Z,77.96
2017-12-08T07:58:19.898Z,78.03
2017-12-08T07:59:22.346Z,78.04
2017-12-08T08:00:24.809Z,77.54
2017-12-08T08:01:28.039Z,77.62
2017-12-08T08:02:30.501Z,77.75
2017-12-08T08:03:32.958Z,78.22
2017-12-08T08:04:35.424Z,77.65
2017-12-08T08:05:37.875Z,77.85
2017-12-08T08:06:40.383Z,78.21
2017-12-08T08:07:42.852Z,78.11
2017-12-08T08:08:45.316Z,78.78
2017-12-08T08:09:47.806Z,79.28
2017-12-08T08:10:50.269Z,81.30
2017-12-08T08:11:52.772Z,82.40
2017-12-08T08:12:55.236Z,84.31
2017-12-08T08:13:57.682Z,85.29
2017-12-08T08:15:00.126Z,86.39
2017-12-08T08:16:02.619Z,87.16
2017-12-08T08:17:05.083Z,87.92
2017-12-08T08:18:07.539Z,88.29
2017-12-08T08:19:10.010Z,88.11
2017-12-08T08:20:12.523Z,88.17
2017-12-08T08:21:21.279Z,88.42
2017-12-08T08:22:23.836Z,88.03
2017-12-08T08:23:26.292Z,87.83
2017-12-08T08:24:28.769Z,88.91
2017-12-08T08:25:31.288Z,88.83
2017-12-08T08:26:33.974Z,88.00
2017-12-08T08:27:36.437Z,87.94
2017-12-08T08:28:38.905Z,88.14
2017-12-08T08:29:41.368Z,87.84
2017-12-08T08:30:43.814Z,87.96
2017-12-08T08:31:46.266Z,88.07
2017-12-08T08:32:48.725Z,88.32
2017-12-08T08:33:51.192Z,88.69
2017-12-08T08:34:53.652Z,88.71
2017-12-08T08:35:56.098Z,88.72
2017-12-08T08:36:58.559Z,88.69
2017-12-08T08:38:01.018Z,88.42
2017-12-08T08:39:03.484Z,87.92
2017-12-08T08:40:05.944Z,88.06
2017-12-08T08:41:08.404Z,87.97
2017-12-08T08:42:10.869Z,87.93
2017-12-08T08:43:13.355Z,87.91
2017-12-08T08:44:15.865Z,88.19
2017-12-08T08:45:18.382Z,87.93
2017-12-08T08:46:24.780Z,87.74
2017-12-08T08:47:27.256Z,87.38
2017-12-08T08:48:29.698Z,87.24
2017-12-08T08:49:32.156Z,85.66
2017-12-08T08:50:34.625Z,85.45
2017-12-08T08:51:37.085Z,84.38
2017-12-08T08:52:39.530Z,84.22
2017-12-08T08:53:41.998Z,84.48
2017-12-08T08:54:44.458Z,84.42
2017-12-08T08:55:46.903Z,84.60
2017-12-08T08:56:49.365Z,84.92
2017-12-08T08:57:51.831Z,85.00
2017-12-08T08:58:54.306Z,85.57
2017-12-08T08:59:57.191Z,86.00
2017-12-08T09:00:59.855Z,85.63
2017-12-08T09:02:02.331Z,85.04
2017-12-08T09:03:04.778Z,84.62
2017-12-08T09:04:07.240Z,84.58
2017-12-08T09:05:09.690Z,84.78
2017-12-08T09:06:12.157Z,84.35
2017-12-08T09:09:34.876Z,82.55
2017-12-08T09:10:37.347Z,83.38
2017-12-08T09:11:39.827Z,83.99
2017-12-08T09:12:42.313Z,83.41
2017-12-08T09:13:44.858Z,83.83
2017-12-08T09:14:47.344Z,83.05
2017-12-08T09:15:49.812Z,83.20
2017-12-08T09:16:52.270Z,83.09
2017-12-08T09:17:54.766Z,83.03
2017-12-08T09:18:57.218Z,83.38
2017-12-08T09:19:59.705Z,82.91
2017-12-08T09:21:02.169Z,83.00
2017-12-08T09:22:04.652Z,83.47
2017-12-08T09:23:07.163Z,83.25
2017-12-08T09:24:09.706Z,82.96
2017-12-08T09:25:12.202Z,82.71
2017-12-08T09:26:14.780Z,82.82
2017-12-08T09:27:17.245Z,82.38
2017-12-08T09:28:19.890Z,82.16
2017-12-08T09:29:22.334Z,82.25
2017-12-08T09:30:24.846Z,82.05
2017-12-08T09:31:27.330Z,82.42
2017-12-08T09:32:29.866Z,82.08
2017-12-08T09:33:32.756Z,81.40
2017-12-08T09:34:35.394Z,80.95
2017-12-08T09:35:37.878Z,81.22
2017-12-08T09:36:40.331Z,80.55
2017-12-08T09:37:42.801Z,79.68
2017-12-08T09:38:45.264Z,79.67
2017-12-08T09:39:47.732Z,79.52
2017-12-08T09:40:50.221Z,79.03
2017-12-08T09:41:52.666Z,79.04
2017-12-08T09:42:55.131Z,77.83
2017-12-08T09:43:57.615Z,78.07
2017-12-08T09:45:00.078Z,77.78
2017-12-08T09:46:02.596Z,77.94
2017-12-08T09:47:05.043Z,77.40
2017-12-08T09:48:07.486Z,76.35
2017-12-08T09:49:09.961Z,75.58
2017-12-08T09:50:12.421Z,76.25
2017-12-08T09:51:14.886Z,75.51
2017-12-08T09:52:17.520Z,74.89
2017-12-08T09:53:19.975Z,73.72
2017-12-08T09:54:22.439Z,72.02
2017-12-08T09:55:24.895Z,72.73
2017-12-08T09:56:27.358Z,72.65
2017-12-08T09:57:29.812Z,73.17
2017-12-08T09:58:32.328Z,74.58
2017-12-08T09:59:34.946Z,73.64
2017-12-08T10:00:37.424Z,74.51
2017-12-08T10:01:39.911Z,74.94
2017-12-08T10:02:42.378Z,72.45
2017-12-08T10:03:44.880Z,73.39
2017-12-08T10:04:47.331Z,73.66
2017-12-08T10:05:49.804Z,73.22
2017-12-08T10:06:52.404Z,73.73
2017-12-08T10:07:54.855Z,74.58
2017-12-08T10:08:57.320Z,74.85
2017-12-08T10:09:59.784Z,74.41
2017-12-08T10:11:02.238Z,75.01
2017-12-08T10:12:04.726Z,74.93
2017-12-08T10:13:07.208Z,75.33
2017-12-08T10:14:09.660Z,74.68
2017-12-08T10:15:12.179Z,74.96
2017-12-08T10:16:14.630Z,75.49
2017-12-08T10:17:17.098Z,76.15
2017-12-08T10:18:19.649Z,76.37
2017-12-08T10:19:22.107Z,76.16
2017-12-08T10:20:24.638Z,76.44
2017-12-08T10:21:27.117Z,76.26
2017-12-08T10:22:29.579Z,76.65
2017-12-08T10:23:32.052Z,74.37
2017-12-08T10:24:34.595Z,74.58
2017-12-08T10:25:37.050Z,74.16
2017-12-08T10:26:39.531Z,74.29
2017-12-08T10:27:42.031Z,75.16
2017-12-08T10:28:44.531Z,75.44
2017-12-08T10:29:46.994Z,76.74
2017-12-08T10:30:49.489Z,77.62
2017-12-08T10:31:52.128Z,78.59
2017-12-08T10:32:54.600Z,79.51
2017-12-08T10:33:57.064Z,80.77
2017-12-08T10:34:59.531Z,80.59
2017-12-08T10:36:02.040Z,80.95
2017-12-08T10:37:04.517Z,80.19
2017-12-08T10:38:07.000Z,79.90
2017-12-08T10:39:09.504Z,80.86
2017-12-08T10:40:11.987Z,80.41
2017-12-08T10:41:14.445Z,80.13
2017-12-08T10:42:16.898Z,80.29
2017-12-08T10:43:19.370Z,80.12
2017-12-08T10:44:21.818Z,79.96
2017-12-08T10:45:24.285Z,80.79
2017-12-08T10:46:27.681Z,79.94
2017-12-08T10:47:30.229Z,80.31
2017-12-08T10:48:33.314Z,79.88
2017-12-08T10:49:35.851Z,79.97
2017-12-08T10:50:38.733Z,79.55
2017-12-08T10:51:41.339Z,80.05
2017-12-08T10:52:43.796Z,78.97
2017-12-08T10:53:46.289Z,79.28
2017-12-08T10:54:48.738Z,79.02
2017-12-08T10:55:51.205Z,78.44
2017-12-08T10:56:53.673Z,78.65
2017-12-08T10:57:56.150Z,77.86
2017-12-08T10:58:58.622Z,77.73
2017-12-08T11:00:01.099Z,78.46
2017-12-08T11:01:03.565Z,78.27
2017-12-08T11:02:06.023Z,78.20
2017-12-08T11:03:08.482Z,78.06
2017-12-08T11:04:10.998Z,78.00
2017-12-08T11:05:13.460Z,77.04
2017-12-08T11:06:15.929Z,77.66
2017-12-08T11:07:18.389Z,78.34
2017-12-08T11:08:21.001Z,78.04
2017-12-08T11:09:23.566Z,77.41
2017-12-08T11:10:26.019Z,76.64
2017-12-08T11:11:28.489Z,77.49
2017-12-08T11:12:30.961Z,75.88
2017-12-08T11:13:33.415Z,75.76
2017-12-08T11:14:35.896Z,75.36
2017-12-08T11:15:38.342Z,77.04
2017-12-08T11:16:40.810Z,76.71
2017-12-08T11:17:43.269Z,76.77
2017-12-08T11:18:45.710Z,76.77
2017-12-08T11:19:48.189Z,76.60
2017-12-08T11:20:50.635Z,76.92
2017-12-08T11:21:53.086Z,76.89
2017-12-08T11:22:55.598Z,76.93
2017-12-08T11:23:58.057Z,77.12
2017-12-08T11:25:00.534Z,77.68
2017-12-08T11:26:02.997Z,77.54
2017-12-08T11:27:05.478Z,78.10
2017-12-08T11:28:08.318Z,78.10
2017-12-08T11:29:10.942Z,78.54
2017-12-08T11:30:13.406Z,78.85
2017-12-08T11:31:16.031Z,79.58
2017-12-08T11:32:18.517Z,80.14
2017-12-08T11:33:21.238Z,80.53
2017-12-08T11:34:23.726Z,80.99
2017-12-08T11:35:26.236Z,80.73
2017-12-08T11:36:29.868Z,80.87
2017-12-08T11:37:32.332Z,81.30
2017-12-08T11:38:35.380Z,80.24
2017-12-08T11:39:37.893Z,80.42
2017-12-08T11:40:40.363Z,81.02
2017-12-08T11:41:42.810Z,80.03
2017-12-08T11:42:45.268Z,80.78
2017-12-08T11:43:47.934Z,80.42
2017-12-08T11:44:50.491Z,80.67
2017-12-08T11:45:52.989Z,80.76
2017-12-08T11:46:55.737Z,80.92
2017-12-08T11:47:58.203Z,80.66
2017-12-08T11:49:00.668Z,80.58
2017-12-08T11:50:03.129Z,81.22
2017-12-08T11:51:05.599Z,80.56
2017-12-08T11:52:08.060Z,80.93
2017-12-08T11:53:10.789Z,81.37
2017-12-08T11:54:13.329Z,80.85
2017-12-08T11:55:15.792Z,80.54
2017-12-08T11:56:18.273Z,81.04
2017-12-08T11:57:20.720Z,80.83
2017-12-08T11:58:23.183Z,80.54
2017-12-08T11:59:25.634Z,80.72
2017-12-08T12:00:28.082Z,81.39
2017-12-08T12:01:30.641Z,80.06
2017-12-08T12:02:33.090Z,80.24
2017-12-08T12:03:35.556Z,80.53
2017-12-08T12:04:38.016Z,80.68
2017-12-08T12:05:40.485Z,81.19
2017-12-08T12:06:42.967Z,80.59
2017-12-08T12:07:45.424Z,81.39
2017-12-08T12:08:47.885Z,81.34
2017-12-08T12:09:50.369Z,81.55
2017-12-08T12:10:52.817Z,81.65
2017-12-08T12:11:55.290Z,82.29
2017-12-08T12:12:58.493Z,82.37
2017-12-08T12:14:01.100Z,83.21
2017-12-08T12:15:03.568Z,83.35
2017-12-08T12:16:07.402Z,83.92
2017-12-08T12:17:09.896Z,84.14
2017-12-08T12:18:12.338Z,84.63
2017-12-08T12:19:15.006Z,84.76
2017-12-08T12:20:17.468Z,84.89
2017-12-08T12:21:19.994Z,85.11
2017-12-08T12:22:22.458Z,84.62
2017-12-08T12:23:24.907Z,85.51
2017-12-08T12:24:27.354Z,85.55
2017-12-08T12:25:29.863Z,85.94
2017-12-08T12:26:32.284Z,86.05
2017-12-08T12:27:34.778Z,86.26
2017-12-08T12:28:37.513Z,85.75
2017-12-08T12:29:40.029Z,85.97
2017-12-08T12:30:42.471Z,86.29
2017-12-08T12:31:44.943Z,86.43
2017-12-08T12:32:47.446Z,86.54
2017-12-08T12:33:49.979Z,86.38
2017-12-08T12:34:52.440Z,86.55
2017-12-08T12:35:54.905Z,86.74
2017-12-08T12:36:57.393Z,86.39
2017-12-08T12:37:59.886Z,86.62
2017-12-08T12:39:02.351Z,86.85
2017-12-08T12:40:04.821Z,86.65
2017-12-08T12:41:07.491Z,86.41
2017-12-08T12:42:10.021Z,86.64
2017-12-08T12:43:12.530Z,86.68
2017-12-08T12:44:14.997Z,86.92
2017-12-08T12:45:17.552Z,86.93
2017-12-08T12:46:20.017Z,86.98
2017-12-08T12:47:22.480Z,86.83
2017-12-08T12:48:24.960Z,86.89
2017-12-08T12:49:27.433Z,86.87
2017-12-08T12:50:29.880Z,87.02
2017-12-08T12:51:33.200Z,87.02
2017-12-08T12:52:35.681Z,87.31
2017-12-08T12:53:38.181Z,87.41
2017-12-08T12:54:40.642Z,87.71
2017-12-08T12:55:43.104Z,87.64
2017-12-08T12:56:45.546Z,87.71
2017-12-08T12:57:47.998Z,87.92
2017-12-08T12:58:50.462Z,88.22
2017-12-08T12:59:52.920Z,88.33
2017-12-08T13:00:55.366Z,88.12
2017-12-08T13:01:57.818Z,88.43
2017-12-08T13:03:00.287Z,88.67
2017-12-08T13:04:02.772Z,89.12
2017-12-08T13:05:05.226Z,89.28
2017-12-08T13:06:07.686Z,89.41
2017-12-08T13:07:10.151Z,89.82
2017-12-08T13:08:12.612Z,90.16
2017-12-08T13:09:15.098Z,89.16
2017-12-08T13:10:17.566Z,89.10
2017-12-08T13:11:20.063Z,89.65
2017-12-08T13:12:22.520Z,89.83
2017-12-08T13:13:24.968Z,89.58
2017-12-08T13:14:27.428Z,89.48
2017-12-08T13:15:29.885Z,89.69
2017-12-08T13:16:32.343Z,89.41
2017-12-08T13:17:34.795Z,89.76
2017-12-08T13:18:37.260Z,90.25
2017-12-08T13:19:39.737Z,90.87
2017-12-08T13:20:42.178Z,90.55
2017-12-08T13:21:44.640Z,90.64
2017-12-08T13:22:47.104Z,91.00
2017-12-08T13:23:49.554Z,91.52
2017-12-08T13:24:52.033Z,91.81
2017-12-08T13:25:54.492Z,91.45
2017-12-08T13:26:56.952Z,91.77